sensor_id;sensor_type;location;lat;lon;timestamp;pressure;altitude;pressure_sealevel;temperature;humidity
65758;BME280;52495;52.208;5.158;2023-01-28T00:00:18;102971.41;;;3.89;78.58
65758;BME280;52495;52.208;5.158;2023-01-28T00:02:46;102969.66;;;3.88;78.01
65758;BME280;52495;52.208;5.158;2023-01-28T00:05:14;102975.28;;;3.80;78.23
65758;BME280;52495;52.208;5.158;2023-01-28T00:07:40;102976.78;;;3.95;77.84
65758;BME280;52495;52.208;5.158;2023-01-28T00:10:08;102987.53;;;3.88;77.42
65758;BME280;52495;52.208;5.158;2023-01-28T00:12:35;102984.59;;;3.98;77.74
65758;BME280;52495;52.208;5.158;2023-01-28T00:15:03;102990.44;;;3.95;76.44
65758;BME280;52495;52.208;5.158;2023-01-28T00:17:31;102981.38;;;4.02;76.68
65758;BME280;52495;52.208;5.158;2023-01-28T00:19:58;102972.34;;;3.91;76.33
65758;BME280;52495;52.208;5.158;2023-01-28T00:22:25;102976.09;;;3.79;77.12
65758;BME280;52495;52.208;5.158;2023-01-28T00:24:51;102979.94;;;3.89;76.76
65758;BME280;52495;52.208;5.158;2023-01-28T00:27:18;102979.88;;;3.88;76.47
65758;BME280;52495;52.208;5.158;2023-01-28T00:29:45;102971.31;;;3.87;76.51
65758;BME280;52495;52.208;5.158;2023-01-28T00:32:12;102972.06;;;3.85;75.43
65758;BME280;52495;52.208;5.158;2023-01-28T00:34:41;102987.34;;;3.65;76.45
65758;BME280;52495;52.208;5.158;2023-01-28T00:37:08;102971.13;;;3.83;75.90
65758;BME280;52495;52.208;5.158;2023-01-28T00:39:35;102974.28;;;3.77;75.83
65758;BME280;52495;52.208;5.158;2023-01-28T00:42:01;102977.88;;;3.62;76.62
65758;BME280;52495;52.208;5.158;2023-01-28T00:44:28;102984.38;;;3.56;76.16
65758;BME280;52495;52.208;5.158;2023-01-28T00:46:55;102978.19;;;3.51;76.90
65758;BME280;52495;52.208;5.158;2023-01-28T00:49:22;102983.78;;;3.61;76.26
65758;BME280;52495;52.208;5.158;2023-01-28T00:51:50;102975.69;;;3.52;76.05
65758;BME280;52495;52.208;5.158;2023-01-28T00:54:17;102978.31;;;3.54;76.33
65758;BME280;52495;52.208;5.158;2023-01-28T00:56:43;102982.34;;;3.48;76.45
65758;BME280;52495;52.208;5.158;2023-01-28T00:59:10;102974.53;;;3.63;74.96
65758;BME280;52495;52.208;5.158;2023-01-28T01:01:37;102976.72;;;3.56;75.95
65758;BME280;52495;52.208;5.158;2023-01-28T01:04:04;102974.69;;;3.48;76.01
65758;BME280;52495;52.208;5.158;2023-01-28T01:06:33;102975.63;;;3.51;76.10
65758;BME280;52495;52.208;5.158;2023-01-28T01:09:03;102976.06;;;3.42;75.98
65758;BME280;52495;52.208;5.158;2023-01-28T01:11:30;102975.91;;;3.39;75.64
65758;BME280;52495;52.208;5.158;2023-01-28T01:13:58;102971.69;;;3.39;75.52
65758;BME280;52495;52.208;5.158;2023-01-28T01:16:27;102967.53;;;3.23;75.92
65758;BME280;52495;52.208;5.158;2023-01-28T01:18:54;102967.91;;;3.31;75.59
65758;BME280;52495;52.208;5.158;2023-01-28T01:21:23;102981.22;;;3.43;74.20
65758;BME280;52495;52.208;5.158;2023-01-28T01:23:51;102974.69;;;3.48;74.11
65758;BME280;52495;52.208;5.158;2023-01-28T01:26:19;102979.88;;;3.50;74.01
65758;BME280;52495;52.208;5.158;2023-01-28T01:28:46;102980.38;;;3.43;74.74
65758;BME280;52495;52.208;5.158;2023-01-28T01:31:14;102980.97;;;3.37;74.83
65758;BME280;52495;52.208;5.158;2023-01-28T01:33:42;102980.66;;;3.31;75.21
65758;BME280;52495;52.208;5.158;2023-01-28T01:36:10;102979.91;;;3.33;75.50
65758;BME280;52495;52.208;5.158;2023-01-28T01:38:38;102983.66;;;3.40;75.08
65758;BME280;52495;52.208;5.158;2023-01-28T01:41:06;102974.38;;;3.42;74.79
65758;BME280;52495;52.208;5.158;2023-01-28T01:43:49;102983.72;;;3.42;74.26
65758;BME280;52495;52.208;5.158;2023-01-28T01:46:16;102983.53;;;3.37;74.56
65758;BME280;52495;52.208;5.158;2023-01-28T01:48:45;102993.28;;;3.28;74.96
65758;BME280;52495;52.208;5.158;2023-01-28T01:51:15;102994.88;;;3.26;75.46
65758;BME280;52495;52.208;5.158;2023-01-28T01:53:47;102993.13;;;3.25;75.54
65758;BME280;52495;52.208;5.158;2023-01-28T01:56:18;102991.63;;;3.28;76.23
65758;BME280;52495;52.208;5.158;2023-01-28T01:58:49;102991.03;;;3.34;75.83
65758;BME280;52495;52.208;5.158;2023-01-28T02:01:19;102988.63;;;3.37;75.76
65758;BME280;52495;52.208;5.158;2023-01-28T02:03:52;102988.09;;;3.44;75.04
65758;BME280;52495;52.208;5.158;2023-01-28T02:06:21;102989.03;;;3.46;74.78
65758;BME280;52495;52.208;5.158;2023-01-28T02:08:48;102980.53;;;3.46;74.72
65758;BME280;52495;52.208;5.158;2023-01-28T02:11:16;102987.09;;;3.41;75.02
65758;BME280;52495;52.208;5.158;2023-01-28T02:13:48;102992.50;;;3.47;75.11
65758;BME280;52495;52.208;5.158;2023-01-28T02:16:16;102986.66;;;3.49;75.28
65758;BME280;52495;52.208;5.158;2023-01-28T02:18:44;102989.19;;;3.49;74.49
65758;BME280;52495;52.208;5.158;2023-01-28T02:21:30;102985.84;;;3.51;74.96
65758;BME280;52495;52.208;5.158;2023-01-28T02:24:17;102991.69;;;3.48;74.98
65758;BME280;52495;52.208;5.158;2023-01-28T02:27:00;102997.75;;;3.50;74.76
65758;BME280;52495;52.208;5.158;2023-01-28T02:29:41;103012.03;;;3.64;74.70
65758;BME280;52495;52.208;5.158;2023-01-28T02:32:14;103011.00;;;3.61;74.55
65758;BME280;52495;52.208;5.158;2023-01-28T02:34:46;103007.88;;;3.48;73.86
65758;BME280;52495;52.208;5.158;2023-01-28T02:37:18;103008.22;;;3.56;74.10
65758;BME280;52495;52.208;5.158;2023-01-28T02:39:48;103010.44;;;3.48;74.06
65758;BME280;52495;52.208;5.158;2023-01-28T02:42:20;103010.38;;;3.47;73.84
65758;BME280;52495;52.208;5.158;2023-01-28T02:44:49;103005.13;;;3.44;74.08
65758;BME280;52495;52.208;5.158;2023-01-28T02:47:16;102997.50;;;3.45;74.85
65758;BME280;52495;52.208;5.158;2023-01-28T02:50:04;102997.59;;;3.47;74.37
65758;BME280;52495;52.208;5.158;2023-01-28T02:52:44;102994.38;;;3.51;74.75
65758;BME280;52495;52.208;5.158;2023-01-28T02:55:37;102996.13;;;3.52;74.87
65758;BME280;52495;52.208;5.158;2023-01-28T02:58:10;102995.41;;;3.55;73.53
65758;BME280;52495;52.208;5.158;2023-01-28T03:00:49;102993.72;;;3.55;74.17
65758;BME280;52495;52.208;5.158;2023-01-28T03:03:25;102998.47;;;3.66;73.61
65758;BME280;52495;52.208;5.158;2023-01-28T03:05:56;102992.69;;;3.52;73.27
65758;BME280;52495;52.208;5.158;2023-01-28T03:08:34;102988.75;;;3.58;73.21
65758;BME280;52495;52.208;5.158;2023-01-28T03:11:19;102988.31;;;3.67;73.38
65758;BME280;52495;52.208;5.158;2023-01-28T03:14:04;102993.00;;;3.58;73.20
65758;BME280;52495;52.208;5.158;2023-01-28T03:16:52;102986.44;;;3.45;73.33
65758;BME280;52495;52.208;5.158;2023-01-28T03:19:38;102988.84;;;3.42;73.44
65758;BME280;52495;52.208;5.158;2023-01-28T03:22:23;102992.56;;;3.48;74.09
65758;BME280;52495;52.208;5.158;2023-01-28T03:25:17;102995.69;;;3.43;74.11
65758;BME280;52495;52.208;5.158;2023-01-28T03:28:07;103000.75;;;3.41;73.93
65758;BME280;52495;52.208;5.158;2023-01-28T03:31:00;102988.91;;;3.43;74.38
65758;BME280;52495;52.208;5.158;2023-01-28T03:33:52;102985.53;;;3.44;74.61
65758;BME280;52495;52.208;5.158;2023-01-28T03:36:37;102991.53;;;3.45;73.92
65758;BME280;52495;52.208;5.158;2023-01-28T03:39:36;102992.41;;;3.45;74.38
65758;BME280;52495;52.208;5.158;2023-01-28T03:42:06;102990.00;;;3.48;74.25
65758;BME280;52495;52.208;5.158;2023-01-28T03:44:38;102985.63;;;3.46;74.47
65758;BME280;52495;52.208;5.158;2023-01-28T03:47:19;102995.69;;;3.43;74.34
65758;BME280;52495;52.208;5.158;2023-01-28T03:49:49;102994.81;;;3.42;74.25
65758;BME280;52495;52.208;5.158;2023-01-28T03:52:19;102999.06;;;3.42;74.60
65758;BME280;52495;52.208;5.158;2023-01-28T03:54:47;103001.66;;;3.43;74.80
65758;BME280;52495;52.208;5.158;2023-01-28T03:57:15;102998.00;;;3.56;74.26
65758;BME280;52495;52.208;5.158;2023-01-28T03:59:43;102993.50;;;3.51;73.25
65758;BME280;52495;52.208;5.158;2023-01-28T04:02:11;102996.56;;;3.43;74.03
65758;BME280;52495;52.208;5.158;2023-01-28T04:04:38;102999.25;;;3.46;73.03
65758;BME280;52495;52.208;5.158;2023-01-28T04:07:08;103003.16;;;3.38;73.59
65758;BME280;52495;52.208;5.158;2023-01-28T04:10:13;103011.53;;;3.54;72.43
65758;BME280;52495;52.208;5.158;2023-01-28T04:12:55;103013.19;;;3.53;72.48
65758;BME280;52495;52.208;5.158;2023-01-28T04:15:24;103007.97;;;3.50;71.99
65758;BME280;52495;52.208;5.158;2023-01-28T04:17:52;103016.63;;;3.36;73.19
65758;BME280;52495;52.208;5.158;2023-01-28T04:20:25;103024.72;;;3.27;73.33
65758;BME280;52495;52.208;5.158;2023-01-28T04:22:55;103018.16;;;3.32;73.35
65758;BME280;52495;52.208;5.158;2023-01-28T04:25:22;103022.03;;;3.42;71.54
65758;BME280;52495;52.208;5.158;2023-01-28T04:27:49;103028.00;;;3.42;71.60
65758;BME280;52495;52.208;5.158;2023-01-28T04:30:20;103030.63;;;3.26;72.50
65758;BME280;52495;52.208;5.158;2023-01-28T04:33:07;103025.13;;;3.18;73.53
65758;BME280;52495;52.208;5.158;2023-01-28T04:35:55;103022.41;;;3.31;73.00
65758;BME280;52495;52.208;5.158;2023-01-28T04:38:41;103030.78;;;3.29;73.12
65758;BME280;52495;52.208;5.158;2023-01-28T04:41:34;103021.50;;;3.31;72.70
65758;BME280;52495;52.208;5.158;2023-01-28T04:44:09;103022.84;;;3.23;74.02
65758;BME280;52495;52.208;5.158;2023-01-28T04:46:54;103012.84;;;3.27;73.71
65758;BME280;52495;52.208;5.158;2023-01-28T04:49:39;103008.44;;;3.25;73.82
65758;BME280;52495;52.208;5.158;2023-01-28T04:52:26;103010.88;;;3.22;73.18
65758;BME280;52495;52.208;5.158;2023-01-28T04:55:08;103016.03;;;3.23;73.49
65758;BME280;52495;52.208;5.158;2023-01-28T04:57:35;103019.38;;;3.22;73.98
65758;BME280;52495;52.208;5.158;2023-01-28T05:00:06;103018.44;;;3.20;74.51
65758;BME280;52495;52.208;5.158;2023-01-28T05:02:33;103007.56;;;3.24;74.30
65758;BME280;52495;52.208;5.158;2023-01-28T05:05:01;103007.78;;;3.29;73.44
65758;BME280;52495;52.208;5.158;2023-01-28T05:07:41;103009.28;;;3.24;73.55
65758;BME280;52495;52.208;5.158;2023-01-28T05:10:10;103013.47;;;3.23;73.15
65758;BME280;52495;52.208;5.158;2023-01-28T05:12:37;103018.97;;;3.31;73.64
65758;BME280;52495;52.208;5.158;2023-01-28T05:15:07;103023.00;;;3.44;72.15
65758;BME280;52495;52.208;5.158;2023-01-28T05:17:34;103018.00;;;3.29;72.57
65758;BME280;52495;52.208;5.158;2023-01-28T05:20:01;103024.16;;;3.32;72.35
65758;BME280;52495;52.208;5.158;2023-01-28T05:22:28;103018.38;;;3.37;72.78
65758;BME280;52495;52.208;5.158;2023-01-28T05:25:35;103016.53;;;3.52;70.32
65758;BME280;52495;52.208;5.158;2023-01-28T05:28:02;103021.16;;;3.41;71.18
65758;BME280;52495;52.208;5.158;2023-01-28T05:30:29;103019.16;;;3.36;70.97
65758;BME280;52495;52.208;5.158;2023-01-28T05:32:56;103014.75;;;3.31;71.09
65758;BME280;52495;52.208;5.158;2023-01-28T05:35:23;103016.84;;;3.22;71.40
65758;BME280;52495;52.208;5.158;2023-01-28T05:37:50;103007.94;;;3.14;72.12
65758;BME280;52495;52.208;5.158;2023-01-28T05:40:18;102998.53;;;3.13;71.91
65758;BME280;52495;52.208;5.158;2023-01-28T05:42:46;103012.53;;;3.03;71.70
65758;BME280;52495;52.208;5.158;2023-01-28T05:45:33;103018.00;;;3.11;72.11
65758;BME280;52495;52.208;5.158;2023-01-28T05:48:04;103007.69;;;3.09;72.39
65758;BME280;52495;52.208;5.158;2023-01-28T05:50:54;103012.69;;;3.06;72.41
65758;BME280;52495;52.208;5.158;2023-01-28T05:53:30;103021.03;;;3.03;72.15
65758;BME280;52495;52.208;5.158;2023-01-28T05:55:57;103018.50;;;3.03;71.89
65758;BME280;52495;52.208;5.158;2023-01-28T05:58:25;103016.13;;;2.90;72.16
65758;BME280;52495;52.208;5.158;2023-01-28T06:00:55;103014.31;;;2.87;72.30
65758;BME280;52495;52.208;5.158;2023-01-28T06:03:28;103018.94;;;2.78;71.91
65758;BME280;52495;52.208;5.158;2023-01-28T06:05:55;103017.97;;;2.76;72.55
65758;BME280;52495;52.208;5.158;2023-01-28T06:08:22;103015.44;;;2.76;72.62
65758;BME280;52495;52.208;5.158;2023-01-28T06:10:49;103020.78;;;2.81;73.04
65758;BME280;52495;52.208;5.158;2023-01-28T06:13:16;103019.72;;;2.94;72.33
65758;BME280;52495;52.208;5.158;2023-01-28T06:16:03;103008.06;;;2.99;72.64
65758;BME280;52495;52.208;5.158;2023-01-28T06:18:56;103016.66;;;3.01;73.32
65758;BME280;52495;52.208;5.158;2023-01-28T06:21:23;103025.59;;;2.93;72.54
65758;BME280;52495;52.208;5.158;2023-01-28T06:23:50;103031.41;;;3.07;72.79
65758;BME280;52495;52.208;5.158;2023-01-28T06:26:17;103021.25;;;2.90;73.24
65758;BME280;52495;52.208;5.158;2023-01-28T06:28:45;103022.53;;;2.82;73.35
65758;BME280;52495;52.208;5.158;2023-01-28T06:31:16;103025.16;;;2.83;73.82
65758;BME280;52495;52.208;5.158;2023-01-28T06:33:43;103023.06;;;2.93;73.27
65758;BME280;52495;52.208;5.158;2023-01-28T06:36:10;103032.41;;;2.92;73.12
65758;BME280;52495;52.208;5.158;2023-01-28T06:38:37;103042.66;;;2.94;73.18
65758;BME280;52495;52.208;5.158;2023-01-28T06:41:04;103039.41;;;2.96;73.62
65758;BME280;52495;52.208;5.158;2023-01-28T06:43:31;103038.69;;;2.99;73.71
65758;BME280;52495;52.208;5.158;2023-01-28T06:45:58;103038.38;;;2.93;73.36
65758;BME280;52495;52.208;5.158;2023-01-28T06:48:27;103044.41;;;2.95;73.62
65758;BME280;52495;52.208;5.158;2023-01-28T06:50:57;103052.19;;;2.96;73.78
65758;BME280;52495;52.208;5.158;2023-01-28T06:53:24;103053.19;;;3.00;73.62
65758;BME280;52495;52.208;5.158;2023-01-28T06:55:50;103054.00;;;2.99;73.51
65758;BME280;52495;52.208;5.158;2023-01-28T06:58:17;103049.03;;;3.02;73.12
65758;BME280;52495;52.208;5.158;2023-01-28T07:00:44;103045.34;;;2.79;73.53
65758;BME280;52495;52.208;5.158;2023-01-28T07:03:11;103037.91;;;2.83;73.52
65758;BME280;52495;52.208;5.158;2023-01-28T07:05:39;103042.00;;;2.80;73.84
65758;BME280;52495;52.208;5.158;2023-01-28T07:08:06;103036.56;;;2.73;74.12
65758;BME280;52495;52.208;5.158;2023-01-28T07:10:33;103041.03;;;2.78;74.46
65758;BME280;52495;52.208;5.158;2023-01-28T07:12:59;103048.72;;;2.96;72.65
65758;BME280;52495;52.208;5.158;2023-01-28T07:15:26;103051.84;;;2.90;73.47
65758;BME280;52495;52.208;5.158;2023-01-28T07:17:54;103050.91;;;2.88;73.49
65758;BME280;52495;52.208;5.158;2023-01-28T07:20:21;103051.78;;;2.88;71.66
65758;BME280;52495;52.208;5.158;2023-01-28T07:22:49;103047.09;;;2.80;72.79
65758;BME280;52495;52.208;5.158;2023-01-28T07:25:16;103056.09;;;2.90;72.58
65758;BME280;52495;52.208;5.158;2023-01-28T07:27:48;103060.38;;;2.91;72.93
65758;BME280;52495;52.208;5.158;2023-01-28T07:30:17;103063.41;;;3.00;72.23
65758;BME280;52495;52.208;5.158;2023-01-28T07:32:44;103062.38;;;2.96;72.46
65758;BME280;52495;52.208;5.158;2023-01-28T07:35:11;103060.38;;;2.91;72.36
65758;BME280;52495;52.208;5.158;2023-01-28T07:37:39;103062.63;;;2.84;73.08
65758;BME280;52495;52.208;5.158;2023-01-28T07:40:08;103062.63;;;2.84;73.59
65758;BME280;52495;52.208;5.158;2023-01-28T07:42:35;103059.34;;;2.87;73.57
65758;BME280;52495;52.208;5.158;2023-01-28T07:45:05;103071.47;;;2.91;73.26
65758;BME280;52495;52.208;5.158;2023-01-28T07:47:31;103061.59;;;2.97;73.39
65758;BME280;52495;52.208;5.158;2023-01-28T07:49:58;103075.81;;;3.10;72.93
65758;BME280;52495;52.208;5.158;2023-01-28T07:52:25;103076.47;;;3.06;71.84
65758;BME280;52495;52.208;5.158;2023-01-28T07:54:52;103078.88;;;3.03;72.37
65758;BME280;52495;52.208;5.158;2023-01-28T07:57:20;103074.78;;;3.07;71.09
65758;BME280;52495;52.208;5.158;2023-01-28T07:59:48;103073.53;;;2.98;72.02
65758;BME280;52495;52.208;5.158;2023-01-28T08:02:16;103073.00;;;3.22;70.92
65758;BME280;52495;52.208;5.158;2023-01-28T08:04:43;103068.81;;;3.06;70.04
65758;BME280;52495;52.208;5.158;2023-01-28T08:07:12;103063.84;;;3.09;70.17
65758;BME280;52495;52.208;5.158;2023-01-28T08:09:39;103071.91;;;3.00;71.32
65758;BME280;52495;52.208;5.158;2023-01-28T08:19:06;103083.19;;;3.04;71.54
65758;BME280;52495;52.208;5.158;2023-01-28T08:21:33;103086.66;;;3.23;71.57
65758;BME280;52495;52.208;5.158;2023-01-28T08:23:59;103082.94;;;3.16;70.79
65758;BME280;52495;52.208;5.158;2023-01-28T08:26:26;103092.88;;;3.11;70.83
65758;BME280;52495;52.208;5.158;2023-01-28T08:28:53;103088.66;;;3.12;70.40
65758;BME280;52495;52.208;5.158;2023-01-28T08:31:20;103085.97;;;3.09;70.81
65758;BME280;52495;52.208;5.158;2023-01-28T08:33:46;103089.38;;;3.09;71.39
65758;BME280;52495;52.208;5.158;2023-01-28T08:39:56;103096.31;;;3.12;69.97
65758;BME280;52495;52.208;5.158;2023-01-28T08:42:22;103117.16;;;3.03;70.85
65758;BME280;52495;52.208;5.158;2023-01-28T08:44:49;103108.75;;;3.06;70.79
65758;BME280;52495;52.208;5.158;2023-01-28T08:47:16;103106.22;;;3.06;71.82
65758;BME280;52495;52.208;5.158;2023-01-28T08:49:43;103109.66;;;3.06;72.32
65758;BME280;52495;52.208;5.158;2023-01-28T08:52:09;103102.81;;;3.05;72.25
65758;BME280;52495;52.208;5.158;2023-01-28T08:54:36;103102.06;;;3.08;72.47
65758;BME280;52495;52.208;5.158;2023-01-28T08:57:04;103105.47;;;3.08;72.67
65758;BME280;52495;52.208;5.158;2023-01-28T08:59:31;103111.53;;;3.10;72.96
65758;BME280;52495;52.208;5.158;2023-01-28T09:01:58;103113.41;;;3.13;72.95
65758;BME280;52495;52.208;5.158;2023-01-28T09:04:25;103114.56;;;3.19;72.57
65758;BME280;52495;52.208;5.158;2023-01-28T09:06:53;103114.56;;;3.19;71.93
65758;BME280;52495;52.208;5.158;2023-01-28T09:09:19;103114.88;;;3.26;71.84
65758;BME280;52495;52.208;5.158;2023-01-28T09:11:46;103114.88;;;3.26;71.79
65758;BME280;52495;52.208;5.158;2023-01-28T09:14:14;103118.31;;;3.26;71.73
65758;BME280;52495;52.208;5.158;2023-01-28T09:16:41;103126.84;;;3.27;71.95
65758;BME280;52495;52.208;5.158;2023-01-28T09:19:09;103134.47;;;3.43;71.46
65758;BME280;52495;52.208;5.158;2023-01-28T09:21:37;103132.28;;;3.51;69.26
65758;BME280;52495;52.208;5.158;2023-01-28T09:24:09;103135.50;;;3.47;70.11
65758;BME280;52495;52.208;5.158;2023-01-28T09:26:36;103135.72;;;3.52;69.84
65758;BME280;52495;52.208;5.158;2023-01-28T09:29:02;103145.47;;;3.42;70.10
65758;BME280;52495;52.208;5.158;2023-01-28T09:31:31;103143.22;;;3.48;69.34
65758;BME280;52495;52.208;5.158;2023-01-28T09:33:57;103132.94;;;3.47;69.91
65758;BME280;52495;52.208;5.158;2023-01-28T09:36:24;103137.53;;;3.54;70.25
65758;BME280;52495;52.208;5.158;2023-01-28T09:38:51;103144.72;;;3.61;70.19
65758;BME280;52495;52.208;5.158;2023-01-28T09:41:24;103144.34;;;3.72;70.24
65758;BME280;52495;52.208;5.158;2023-01-28T09:44:06;103135.97;;;3.74;70.13
65758;BME280;52495;52.208;5.158;2023-01-28T09:46:38;103132.75;;;3.78;69.70
65758;BME280;52495;52.208;5.158;2023-01-28T09:49:16;103127.16;;;3.86;69.88
65758;BME280;52495;52.208;5.158;2023-01-28T09:51:48;103143.84;;;3.97;69.62
65758;BME280;52495;52.208;5.158;2023-01-28T09:54:24;103146.78;;;3.87;68.85
65758;BME280;52495;52.208;5.158;2023-01-28T09:56:56;103146.84;;;3.88;68.28
65758;BME280;52495;52.208;5.158;2023-01-28T09:59:33;103148.91;;;3.95;68.43
65758;BME280;52495;52.208;5.158;2023-01-28T10:02:17;103153.28;;;3.98;68.03
65758;BME280;52495;52.208;5.158;2023-01-28T10:04:57;103149.28;;;4.03;68.13
65758;BME280;52495;52.208;5.158;2023-01-28T10:07:33;103161.81;;;4.17;68.00
65758;BME280;52495;52.208;5.158;2023-01-28T10:10:10;103159.03;;;4.30;66.90
65758;BME280;52495;52.208;5.158;2023-01-28T10:12:48;103154.88;;;4.14;67.02
65758;BME280;52495;52.208;5.158;2023-01-28T10:15:29;103150.63;;;4.15;67.04
65758;BME280;52495;52.208;5.158;2023-01-28T10:18:08;103138.97;;;4.20;67.01
65758;BME280;52495;52.208;5.158;2023-01-28T10:20:37;103137.84;;;4.33;67.25
65758;BME280;52495;52.208;5.158;2023-01-28T10:23:16;103135.41;;;4.36;66.94
65758;BME280;52495;52.208;5.158;2023-01-28T10:25:45;103134.59;;;4.37;67.04
65758;BME280;52495;52.208;5.158;2023-01-28T10:28:18;103142.50;;;4.42;66.43
65758;BME280;52495;52.208;5.158;2023-01-28T10:30:46;103149.94;;;4.55;64.35
65758;BME280;52495;52.208;5.158;2023-01-28T10:33:19;103132.78;;;4.34;65.48
65758;BME280;52495;52.208;5.158;2023-01-28T10:35:46;103131.94;;;4.34;64.99
65758;BME280;52495;52.208;5.158;2023-01-28T10:38:15;103140.47;;;4.34;65.51
65758;BME280;52495;52.208;5.158;2023-01-28T10:40:43;103139.97;;;4.42;65.65
65758;BME280;52495;52.208;5.158;2023-01-28T10:43:13;103141.81;;;4.46;65.60
65758;BME280;52495;52.208;5.158;2023-01-28T10:45:43;103127.03;;;4.58;65.55
65758;BME280;52495;52.208;5.158;2023-01-28T10:48:15;103125.34;;;4.59;65.29
65758;BME280;52495;52.208;5.158;2023-01-28T10:50:51;103124.75;;;4.64;65.53
65758;BME280;52495;52.208;5.158;2023-01-28T10:53:18;103108.59;;;4.85;65.57
65758;BME280;52495;52.208;5.158;2023-01-28T10:55:49;103105.31;;;4.68;64.25
65758;BME280;52495;52.208;5.158;2023-01-28T10:58:20;103084.88;;;4.69;64.77
65758;BME280;52495;52.208;5.158;2023-01-28T11:00:52;103083.47;;;4.76;64.72
65758;BME280;52495;52.208;5.158;2023-01-28T11:03:20;103089.81;;;4.84;64.40
65758;BME280;52495;52.208;5.158;2023-01-28T11:05:54;103082.06;;;5.04;64.64
65758;BME280;52495;52.208;5.158;2023-01-28T11:08:22;103068.44;;;4.84;64.24
65758;BME280;52495;52.208;5.158;2023-01-28T11:10:50;103056.97;;;4.95;64.36
65758;BME280;52495;52.208;5.158;2023-01-28T11:13:18;103042.06;;;5.06;64.29
65758;BME280;52495;52.208;5.158;2023-01-28T11:15:47;103039.94;;;5.17;64.55
65758;BME280;52495;52.208;5.158;2023-01-28T11:18:18;103045.63;;;5.31;63.76
65758;BME280;52495;52.208;5.158;2023-01-28T11:20:53;103029.75;;;5.40;63.20
65758;BME280;52495;52.208;5.158;2023-01-28T11:23:23;103036.56;;;5.60;62.76
65758;BME280;52495;52.208;5.158;2023-01-28T11:25:59;103028.22;;;5.66;63.37
65758;BME280;52495;52.208;5.158;2023-01-28T11:28:28;103015.53;;;5.69;63.29
65758;BME280;52495;52.208;5.158;2023-01-28T11:30:57;103006.50;;;5.79;62.86
65758;BME280;52495;52.208;5.158;2023-01-28T11:33:31;103008.13;;;5.77;61.30
65758;BME280;52495;52.208;5.158;2023-01-28T11:36:07;103011.22;;;5.68;61.34
65758;BME280;52495;52.208;5.158;2023-01-28T11:38:47;103011.97;;;5.88;61.00
65758;BME280;52495;52.208;5.158;2023-01-28T11:41:15;103015.50;;;5.92;60.79
65758;BME280;52495;52.208;5.158;2023-01-28T11:43:42;103007.34;;;5.57;61.77
65758;BME280;52495;52.208;5.158;2023-01-28T11:46:20;103014.81;;;5.51;61.89
65758;BME280;52495;52.208;5.158;2023-01-28T11:48:58;103023.34;;;5.51;61.54
65758;BME280;52495;52.208;5.158;2023-01-28T11:51:35;103033.38;;;5.68;61.32
65758;BME280;52495;52.208;5.158;2023-01-28T11:54:22;103034.81;;;5.38;61.62
65758;BME280;52495;52.208;5.158;2023-01-28T11:57:03;103038.00;;;5.11;63.00
65758;BME280;52495;52.208;5.158;2023-01-28T11:59:50;103027.81;;;5.34;62.49
65758;BME280;52495;52.208;5.158;2023-01-28T12:02:32;103034.81;;;5.17;63.69
65758;BME280;52495;52.208;5.158;2023-01-28T12:05:15;103034.31;;;5.26;62.68
65758;BME280;52495;52.208;5.158;2023-01-28T12:07:52;103044.38;;;5.64;61.62
65758;BME280;52495;52.208;5.158;2023-01-28T12:10:26;103044.19;;;5.16;63.62
65758;BME280;52495;52.208;5.158;2023-01-28T12:13:11;103045.69;;;5.32;63.53
65758;BME280;52495;52.208;5.158;2023-01-28T12:16:11;103046.69;;;5.36;62.96
65758;BME280;52495;52.208;5.158;2023-01-28T12:19:02;103046.44;;;5.30;62.14
65758;BME280;52495;52.208;5.158;2023-01-28T12:21:41;103056.50;;;5.25;62.53
65758;BME280;52495;52.208;5.158;2023-01-28T12:24:24;103051.63;;;5.31;64.01
65758;BME280;52495;52.208;5.158;2023-01-28T12:26:58;103047.25;;;5.29;64.58
65758;BME280;52495;52.208;5.158;2023-01-28T12:29:34;103036.75;;;5.44;63.73
65758;BME280;52495;52.208;5.158;2023-01-28T12:32:16;103034.88;;;5.40;63.08
65758;BME280;52495;52.208;5.158;2023-01-28T12:35:04;103027.81;;;5.34;64.00
65758;BME280;52495;52.208;5.158;2023-01-28T12:37:55;103019.88;;;5.28;63.39
65758;BME280;52495;52.208;5.158;2023-01-28T12:40:41;103006.91;;;5.23;63.92
65758;BME280;52495;52.208;5.158;2023-01-28T12:43:13;103005.81;;;5.39;63.42
65758;BME280;52495;52.208;5.158;2023-01-28T12:45:45;102994.19;;;5.47;64.05
65758;BME280;52495;52.208;5.158;2023-01-28T12:48:17;102988.59;;;5.58;63.04
65758;BME280;52495;52.208;5.158;2023-01-28T12:50:47;102991.22;;;5.59;63.38
65758;BME280;52495;52.208;5.158;2023-01-28T12:53:22;102978.88;;;5.72;61.67
65758;BME280;52495;52.208;5.158;2023-01-28T12:55:55;102969.06;;;5.84;62.39
65758;BME280;52495;52.208;5.158;2023-01-28T12:58:35;102964.34;;;5.95;62.55
65758;BME280;52495;52.208;5.158;2023-01-28T13:01:07;102960.34;;;6.26;60.92
65758;BME280;52495;52.208;5.158;2023-01-28T13:03:39;102965.31;;;5.99;60.70
65758;BME280;52495;52.208;5.158;2023-01-28T13:06:10;102968.66;;;5.96;61.28
65758;BME280;52495;52.208;5.158;2023-01-28T13:08:40;102967.44;;;5.86;61.95
65758;BME280;52495;52.208;5.158;2023-01-28T13:11:13;102964.56;;;5.77;61.23
65758;BME280;52495;52.208;5.158;2023-01-28T13:13:42;102958.00;;;5.85;61.80
65758;BME280;52495;52.208;5.158;2023-01-28T13:16:11;102954.75;;;5.89;62.13
65758;BME280;52495;52.208;5.158;2023-01-28T13:18:43;102953.00;;;5.88;62.31
65758;BME280;52495;52.208;5.158;2023-01-28T13:21:16;102948.97;;;5.72;62.95
65758;BME280;52495;52.208;5.158;2023-01-28T13:24:04;102946.72;;;5.80;62.58
65758;BME280;52495;52.208;5.158;2023-01-28T13:26:41;102948.34;;;5.78;62.59
65758;BME280;52495;52.208;5.158;2023-01-28T13:29:19;102943.84;;;5.72;62.76
65758;BME280;52495;52.208;5.158;2023-01-28T13:31:48;102950.94;;;5.78;63.54
65758;BME280;52495;52.208;5.158;2023-01-28T13:34:30;102949.91;;;5.74;63.97
65758;BME280;52495;52.208;5.158;2023-01-28T13:37:01;102950.00;;;5.53;63.72